createdAt,value
2017-11-04T00:01:54.917Z,7.90
2017-11-04T00:04:23.163Z,7.90
2017-11-04T00:06:51.471Z,7.90
2017-11-04T00:09:19.730Z,7.90
2017-11-04T00:11:47.979Z,7.90
2017-11-04T00:14:16.918Z,7.90
2017-11-04T00:16:45.899Z,7.90
2017-11-04T00:19:14.200Z,7.90
2017-11-04T00:21:42.467Z,7.90
2017-11-04T00:24:10.727Z,7.90
2017-11-04T00:26:39.012Z,7.90
2017-11-04T00:29:07.271Z,7.90
2017-11-04T00:31:36.487Z,7.90
2017-11-04T00:34:05.751Z,7.90
2017-11-04T00:36:34.029Z,7.90
2017-11-04T00:39:02.363Z,7.80
2017-11-04T00:41:30.642Z,7.90
2017-11-04T00:43:58.901Z,7.80
2017-11-04T00:46:27.188Z,7.80
2017-11-04T00:48:55.448Z,7.90
2017-11-04T00:51:23.743Z,7.90
2017-11-04T00:53:52.003Z,8.00
2017-11-04T00:56:20.439Z,7.90
2017-11-04T00:58:48.729Z,7.90
2017-11-04T01:01:16.988Z,7.90
2017-11-04T01:03:46.326Z,8.00
2017-11-04T01:06:15.366Z,8.00
2017-11-04T01:08:43.652Z,8.00
2017-11-04T01:11:11.938Z,8.00
2017-11-04T01:13:40.199Z,8.00
2017-11-04T01:16:08.504Z,8.00
2017-11-04T01:18:36.756Z,8.10
2017-11-04T01:21:06.231Z,8.10
2017-11-04T01:23:35.679Z,8.10
2017-11-04T01:26:03.931Z,8.10
2017-11-04T01:28:32.223Z,8.10
2017-11-04T01:31:00.488Z,8.00
2017-11-04T01:33:28.792Z,8.00
2017-11-04T01:35:57.044Z,8.10
2017-11-04T01:38:25.299Z,8.10
2017-11-04T01:40:53.609Z,8.00
2017-11-04T01:43:21.859Z,8.00
2017-11-04T01:45:50.115Z,8.00
2017-11-04T01:48:17.902Z,8.00
2017-11-04T01:50:47.315Z,8.00
2017-11-04T01:53:17.500Z,7.90
2017-11-04T01:55:45.762Z,8.00
2017-11-04T01:58:14.023Z,7.90
2017-11-04T02:00:42.319Z,8.00
2017-11-04T02:03:09.816Z,7.90
2017-11-04T02:05:38.076Z,8.00
2017-11-04T02:08:07.415Z,8.00
2017-11-04T02:10:36.936Z,8.00
2017-11-04T02:13:06.164Z,8.00
2017-11-04T02:15:34.422Z,8.00
2017-11-04T02:18:02.724Z,8.10
2017-11-04T02:20:30.983Z,8.00
2017-11-04T02:22:59.239Z,8.10
2017-11-04T02:25:27.512Z,8.00
2017-11-04T02:27:55.798Z,8.10
2017-11-04T02:30:24.093Z,8.10
2017-11-04T02:32:52.345Z,8.10
2017-11-04T02:35:20.618Z,8.10
2017-11-04T02:37:48.916Z,8.10
2017-11-04T02:40:17.204Z,8.10
2017-11-04T02:42:46.422Z,8.10
2017-11-04T02:45:15.295Z,8.10
2017-11-04T02:47:43.547Z,8.10
2017-11-04T02:50:11.814Z,8.10
2017-11-04T02:52:40.094Z,8.10
2017-11-04T02:55:08.366Z,8.10
2017-11-04T02:57:36.651Z,8.10
2017-11-04T03:00:05.892Z,8.10
2017-11-04T03:02:34.977Z,8.10
2017-11-04T03:05:03.289Z,8.10
2017-11-04T03:07:31.551Z,8.10
2017-11-04T03:09:59.810Z,8.10
2017-11-04T03:12:28.106Z,8.00
2017-11-04T03:14:56.355Z,8.00
2017-11-04T03:17:24.642Z,8.10
2017-11-04T03:19:52.900Z,8.00
2017-11-04T03:22:21.154Z,8.10
2017-11-04T03:24:49.431Z,8.10
2017-11-04T03:27:17.684Z,8.10
2017-11-04T03:29:46.594Z,8.20
2017-11-04T03:32:15.244Z,8.20
2017-11-04T03:34:43.523Z,8.20
2017-11-04T03:37:11.794Z,8.20
2017-11-04T03:39:40.107Z,8.20
2017-11-04T03:42:08.366Z,8.20
2017-11-04T03:44:36.624Z,8.20
2017-11-04T03:47:06.248Z,8.20
2017-11-04T03:49:35.562Z,8.20
2017-11-04T03:52:03.857Z,8.20
2017-11-04T03:54:32.113Z,8.20
2017-11-04T03:57:00.411Z,8.20
2017-11-04T03:59:29.588Z,8.20
2017-11-04T04:01:57.842Z,8.20
2017-11-04T04:04:26.150Z,8.20
2017-11-04T04:06:54.413Z,8.20
2017-11-04T04:09:22.693Z,8.20
2017-11-04T04:11:50.989Z,8.20
2017-11-04T04:14:18.471Z,8.20
2017-11-04T04:16:48.076Z,8.20
2017-11-04T04:19:17.394Z,8.20
2017-11-04T04:21:45.647Z,8.30
2017-11-04T04:24:13.168Z,8.30
2017-11-04T04:26:41.428Z,8.30
2017-11-04T04:29:09.683Z,8.30
2017-11-04T04:31:37.971Z,8.20
2017-11-04T04:34:12.291Z,8.20
2017-11-04T04:36:40.575Z,8.20
2017-11-04T04:39:08.840Z,8.20
2017-11-04T04:41:37.145Z,8.20
2017-11-04T04:44:05.404Z,8.20
2017-11-04T04:46:33.655Z,8.20
2017-11-04T04:49:01.958Z,8.30
2017-11-04T04:51:30.245Z,8.30
2017-11-04T04:53:58.544Z,8.30
2017-11-04T04:56:26.820Z,8.30
2017-11-04T04:58:55.102Z,8.20
2017-11-04T05:01:23.414Z,8.20
2017-11-04T05:03:50.907Z,8.20
2017-11-04T05:06:19.196Z,8.20
2017-11-04T05:08:47.456Z,8.20
2017-11-04T05:11:15.752Z,8.20
2017-11-04T05:13:44.073Z,8.20
2017-11-04T05:16:12.359Z,8.20
2017-11-04T05:18:40.639Z,8.20
2017-11-04T05:21:08.935Z,8.20
2017-11-04T05:23:37.212Z,8.30
2017-11-04T05:26:05.849Z,8.30
2017-11-04T05:28:35.715Z,8.20
2017-11-04T05:31:05.781Z,8.20
2017-11-04T05:33:35.722Z,8.20
2017-11-04T05:36:05.619Z,8.20
2017-11-04T05:38:33.920Z,8.30
2017-11-04T05:41:02.211Z,8.30
2017-11-04T05:43:30.471Z,8.40
2017-11-04T05:45:58.757Z,8.40
2017-11-04T05:48:27.044Z,8.50
2017-11-04T05:50:55.348Z,8.40
2017-11-04T05:53:23.674Z,8.50
2017-11-04T05:55:53.711Z,8.50
2017-11-04T05:58:22.015Z,8.50
2017-11-04T06:00:50.274Z,8.50
2017-11-04T06:03:18.546Z,8.50
2017-11-04T06:05:47.951Z,8.60
2017-11-04T06:08:17.342Z,8.50
2017-11-04T06:10:52.154Z,8.60
2017-11-04T06:13:20.414Z,8.50
2017-11-04T06:15:48.726Z,8.50
2017-11-04T06:18:16.983Z,8.60
2017-11-04T06:20:45.299Z,8.60
2017-11-04T06:23:13.588Z,8.50
2017-11-04T06:25:41.843Z,8.70
2017-11-04T06:28:10.132Z,8.60
2017-11-04T06:30:38.385Z,8.60
2017-11-04T06:33:06.679Z,8.60
2017-11-04T06:35:35.978Z,8.60
2017-11-04T06:38:04.938Z,8.60
2017-11-04T06:40:36.750Z,8.60
2017-11-04T06:43:06.018Z,8.50
2017-11-04T06:45:37.884Z,8.60
2017-11-04T06:48:06.938Z,8.60
2017-11-04T06:50:35.208Z,8.70
2017-11-04T06:53:03.503Z,8.60
2017-11-04T06:55:31.764Z,8.60
2017-11-04T06:58:00.062Z,8.60
2017-11-04T07:00:28.337Z,8.60
2017-11-04T07:02:56.598Z,8.70
2017-11-04T07:05:24.906Z,8.60
2017-11-04T07:07:53.200Z,8.60
2017-11-04T07:10:21.493Z,8.60
2017-11-04T07:12:49.783Z,8.60
2017-11-04T07:15:18.078Z,8.50
2017-11-04T07:17:47.615Z,8.60
2017-11-04T07:20:15.895Z,8.60
2017-11-04T07:22:44.189Z,8.60
2017-11-04T07:25:13.395Z,8.70
2017-11-04T07:27:41.683Z,8.70
2017-11-04T07:30:09.935Z,8.70
2017-11-04T07:32:38.210Z,8.70
2017-11-04T07:35:06.530Z,8.80
2017-11-04T07:37:35.812Z,8.80
2017-11-04T07:40:05.672Z,8.80
2017-11-04T07:42:35.593Z,8.90
2017-11-04T07:45:03.876Z,8.80
2017-11-04T07:47:32.158Z,8.90
2017-11-04T07:50:00.460Z,8.90
2017-11-04T07:52:28.731Z,9.00
2017-11-04T07:55:02.807Z,9.00
2017-11-04T07:57:31.081Z,8.90
2017-11-04T08:00:01.403Z,8.90
2017-11-04T08:02:29.678Z,9.00
2017-11-04T08:04:57.964Z,9.00
2017-11-04T08:07:26.266Z,9.00
2017-11-04T08:09:54.574Z,9.00
2017-11-04T08:12:22.844Z,9.00
2017-11-04T08:14:51.123Z,9.00
2017-11-04T08:17:19.434Z,9.00
2017-11-04T08:19:47.691Z,9.00
2017-11-04T08:22:15.971Z,9.10
2017-11-04T08:24:44.261Z,9.20
2017-11-04T08:27:12.531Z,9.20
2017-11-04T08:29:40.845Z,9.20
2017-11-04T08:32:09.094Z,9.20
2017-11-04T08:34:36.583Z,9.20
2017-11-04T08:37:06.144Z,9.30
2017-11-04T08:39:34.457Z,9.30
2017-11-04T08:42:02.730Z,9.40
2017-11-04T08:44:30.274Z,9.40
2017-11-04T08:46:58.531Z,9.50
2017-11-04T08:49:26.021Z,9.50
2017-11-04T08:51:55.232Z,9.60
2017-11-04T08:54:23.489Z,9.70
2017-11-04T08:56:51.779Z,9.70
2017-11-04T08:59:20.046Z,9.70
2017-11-04T09:01:48.347Z,9.80
2017-11-04T09:04:17.886Z,9.90
2017-11-04T09:06:52.091Z,9.90
2017-11-04T09:09:20.348Z,9.90
2017-11-04T09:11:48.663Z,10.10
2017-11-04T09:14:16.933Z,10.20
2017-11-04T09:16:48.716Z,10.30
2017-11-04T09:19:16.985Z,10.30
2017-11-04T09:21:46.473Z,10.40
2017-11-04T09:24:15.443Z,10.30
2017-11-04T09:26:43.720Z,10.30
2017-11-04T09:29:12.028Z,10.30
2017-11-04T09:31:41.199Z,10.30
2017-11-04T09:34:09.460Z,10.50
2017-11-04T09:36:37.776Z,10.50
2017-11-04T09:39:07.196Z,10.60
2017-11-04T09:41:35.893Z,10.60
2017-11-04T09:44:04.837Z,10.60
2017-11-04T09:46:33.110Z,10.60
2017-11-04T09:49:01.407Z,10.60
2017-11-04T09:51:29.662Z,10.70
2017-11-04T09:53:57.942Z,10.80
2017-11-04T09:56:26.251Z,10.80
2017-11-04T09:58:54.512Z,10.90
2017-11-04T10:01:22.804Z,11.00
2017-11-04T10:03:51.119Z,11.10
2017-11-04T10:06:19.404Z,11.10
2017-11-04T10:08:47.719Z,11.10
2017-11-04T10:11:15.988Z,11.20
2017-11-04T10:13:43.483Z,11.20
2017-11-04T10:16:11.779Z,11.40
2017-11-04T10:18:40.031Z,11.40
2017-11-04T10:21:08.339Z,11.40
2017-11-04T10:23:36.600Z,11.40
2017-11-04T10:26:05.678Z,11.50
2017-11-04T10:28:33.971Z,11.60
2017-11-04T10:31:02.286Z,11.70
2017-11-04T10:33:30.604Z,11.80
2017-11-04T10:35:58.895Z,12.00
2017-11-04T10:38:27.150Z,12.00
2017-11-04T10:40:55.430Z,12.00
2017-11-04T10:43:23.732Z,12.10
2017-11-04T10:45:51.992Z,12.10
2017-11-04T10:48:20.280Z,12.10
2017-11-04T10:50:48.540Z,12.00
2017-11-04T10:53:17.323Z,12.10
2017-11-04T10:55:47.147Z,12.20
2017-11-04T10:58:16.708Z,12.30
2017-11-04T11:00:45.370Z,12.30
2017-11-04T11:03:13.670Z,12.20
2017-11-04T11:05:41.950Z,12.20
2017-11-04T11:08:10.259Z,12.20
2017-11-04T11:10:38.528Z,12.30
2017-11-04T11:13:06.828Z,12.20
2017-11-04T11:15:36.074Z,12.30
2017-11-04T11:18:04.367Z,12.40
2017-11-04T11:20:32.660Z,12.30
2017-11-04T11:23:00.937Z,12.20
2017-11-04T11:25:29.235Z,12.20
2017-11-04T11:27:57.495Z,12.40
2017-11-04T11:30:25.774Z,12.50
2017-11-04T11:32:54.086Z,12.60
2017-11-04T11:35:22.376Z,12.60
2017-11-04T11:37:50.650Z,12.60
2017-11-04T11:40:18.909Z,12.60
2017-11-04T11:42:47.210Z,12.50
2017-11-04T11:45:17.000Z,12.60
2017-11-04T11:47:46.429Z,12.60
2017-11-04T11:50:16.503Z,12.60
2017-11-04T11:52:45.548Z,12.80
2017-11-04T11:55:13.811Z,13.00
2017-11-04T11:57:42.083Z,13.00
2017-11-04T12:00:17.131Z,13.20
2017-11-04T12:02:45.417Z,13.30
2017-11-04T12:05:13.710Z,13.30
2017-11-04T12:07:44.196Z,13.30
2017-11-04T12:10:12.526Z,13.20
2017-11-04T12:12:40.783Z,13.30
2017-11-04T12:15:09.052Z,13.40
2017-11-04T12:17:36.946Z,13.40
2017-11-04T12:20:05.649Z,13.60
2017-11-04T12:22:33.974Z,13.60
2017-11-04T12:25:02.240Z,13.60
2017-11-04T12:27:30.514Z,13.70
2017-11-04T12:29:58.808Z,13.60
2017-11-04T12:32:27.083Z,13.70
2017-11-04T12:34:55.372Z,13.60
2017-11-04T12:37:23.632Z,13.60
2017-11-04T12:39:51.927Z,13.60
2017-11-04T12:42:20.182Z,13.60
2017-11-04T12:44:49.430Z,13.40
2017-11-04T12:47:17.714Z,13.50
2017-11-04T12:49:45.979Z,13.60
2017-11-04T12:52:14.282Z,13.70
2017-11-04T12:54:42.571Z,13.60
2017-11-04T12:57:10.831Z,13.60
2017-11-04T12:59:39.120Z,13.80
2017-11-04T13:02:07.389Z,13.80
2017-11-04T13:04:36.902Z,13.80
2017-11-04T13:07:06.219Z,13.70
2017-11-04T13:09:35.529Z,13.90
2017-11-04T13:12:03.800Z,13.90
2017-11-04T13:14:32.108Z,13.90
2017-11-04T13:17:00.411Z,13.90
2017-11-04T13:19:28.684Z,13.90
2017-11-04T13:21:56.970Z,13.90
2017-11-04T13:24:25.276Z,13.90
2017-11-04T13:26:52.798Z,13.90
2017-11-04T13:29:21.082Z,14.00
2017-11-04T13:31:49.388Z,14.00
2017-11-04T13:34:18.588Z,13.90
2017-11-04T13:36:47.703Z,14.00
2017-11-04T13:39:15.965Z,14.00
2017-11-04T13:41:44.256Z,14.00
2017-11-04T13:44:12.546Z,14.20
2017-11-04T13:46:40.828Z,14.20
2017-11-04T13:49:08.315Z,14.20
2017-11-04T13:51:39.902Z,14.20
2017-11-04T13:54:08.179Z,14.20
2017-11-04T13:56:36.496Z,14.10
2017-11-04T13:59:05.730Z,14.10
2017-11-04T14:01:34.009Z,14.10
2017-11-04T14:04:02.297Z,14.10
2017-11-04T14:06:30.560Z,14.00
2017-11-04T14:08:58.890Z,14.00
2017-11-04T14:11:27.156Z,13.90
2017-11-04T14:13:55.414Z,13.90
2017-11-04T14:16:23.726Z,13.90
2017-11-04T14:18:51.980Z,13.80
2017-11-04T14:21:20.277Z,13.70
2017-11-04T14:23:48.566Z,13.70
2017-11-04T14:26:17.072Z,13.70
2017-11-04T14:28:46.297Z,13.80
2017-11-04T14:31:14.592Z,13.80
2017-11-04T14:33:42.885Z,13.90
2017-11-04T14:36:10.371Z,13.90
2017-11-04T14:38:38.660Z,13.80
2017-11-04T14:41:06.919Z,13.80
2017-11-04T14:43:35.203Z,13.90
2017-11-04T14:46:03.458Z,13.80
2017-11-04T14:48:31.744Z,13.80
2017-11-04T14:51:00.027Z,13.80
2017-11-04T14:53:28.326Z,13.80
2017-11-04T14:55:56.588Z,13.90
2017-11-04T14:58:24.866Z,13.90
2017-11-04T15:00:53.148Z,14.00
2017-11-04T15:03:21.423Z,14.10
2017-11-04T15:05:49.717Z,14.10
2017-11-04T15:08:17.975Z,14.20
2017-11-04T15:10:47.272Z,14.10
2017-11-04T15:13:16.187Z,14.20
2017-11-04T15:15:44.468Z,14.20
2017-11-04T15:18:12.735Z,14.10
2017-11-04T15:20:41.043Z,14.10
2017-11-04T15:23:09.313Z,14.00
2017-11-04T15:25:37.599Z,13.90
2017-11-04T15:28:05.931Z,13.90
2017-11-04T15:30:35.026Z,13.80
2017-11-04T15:33:03.295Z,13.70
2017-11-04T15:35:31.559Z,13.60
2017-11-04T15:37:59.849Z,13.70
2017-11-04T15:40:28.130Z,13.60
2017-11-04T15:42:56.419Z,13.60
2017-11-04T15:45:24.672Z,13.60
2017-11-04T15:47:52.979Z,13.60
2017-11-04T15:50:21.235Z,13.50
2017-11-04T15:52:49.499Z,13.60
2017-11-04T15:55:17.792Z,13.60
2017-11-04T15:57:46.091Z,13.60
2017-11-04T16:00:13.596Z,13.50
2017-11-04T16:02:41.859Z,13.60
2017-11-04T16:05:10.156Z,13.60
2017-11-04T16:07:38.431Z,13.60
2017-11-04T16:10:06.743Z,13.50
2017-11-04T16:12:36.010Z,13.60
2017-11-04T16:15:03.499Z,13.50
2017-11-04T16:17:31.781Z,13.50
2017-11-04T16:20:00.039Z,13.50
2017-11-04T16:22:28.346Z,13.70
2017-11-04T16:24:56.615Z,13.70
2017-11-04T16:27:24.921Z,13.70
2017-11-04T16:29:53.223Z,13.80
2017-11-04T16:32:21.470Z,13.90
2017-11-04T16:34:49.742Z,13.80
2017-11-04T16:37:18.036Z,14.00
2017-11-04T16:39:47.261Z,14.00
2017-11-04T16:42:16.756Z,13.90
2017-11-04T16:44:45.518Z,14.00
2017-11-04T16:47:13.783Z,14.00
2017-11-04T16:49:42.084Z,14.00
2017-11-04T16:52:10.345Z,14.10
2017-11-04T16:54:38.594Z,14.20
2017-11-04T16:57:07.240Z,14.20
2017-11-04T16:59:36.619Z,14.20
2017-11-04T17:02:05.785Z,14.30
2017-11-04T17:04:34.047Z,14.20
2017-11-04T17:07:02.461Z,14.10
2017-11-04T17:09:30.723Z,14.10
2017-11-04T17:11:58.980Z,14.10
2017-11-04T17:14:27.276Z,14.10
2017-11-04T17:16:54.800Z,14.10
2017-11-04T17:19:23.067Z,14.10
2017-11-04T17:21:51.340Z,14.20
2017-11-04T17:24:20.571Z,14.20
2017-11-04T17:26:48.822Z,14.10
2017-11-04T17:29:17.107Z,14.20
2017-11-04T17:31:46.326Z,14.10
2017-11-04T17:34:14.591Z,14.10
2017-11-04T17:36:42.889Z,14.10
2017-11-04T17:39:11.179Z,14.10
2017-11-04T17:41:39.463Z,14.10
2017-11-04T17:44:07.728Z,14.20
2017-11-04T17:46:36.847Z,14.20
2017-11-04T17:49:06.044Z,14.20
2017-11-04T17:51:34.998Z,14.20
2017-11-04T17:54:03.257Z,14.20
2017-11-04T17:56:30.784Z,14.20
2017-11-04T17:59:00.052Z,14.20
2017-11-04T18:01:28.335Z,14.20
2017-11-04T18:03:55.830Z,14.20
2017-11-04T18:06:24.132Z,14.30
2017-11-04T18:08:52.407Z,14.30
2017-11-04T18:11:20.742Z,14.30
2017-11-04T18:13:49.034Z,14.30
2017-11-04T18:16:17.326Z,14.20
2017-11-04T18:18:46.714Z,14.20
2017-11-04T18:21:15.060Z,14.20
2017-11-04T18:23:43.356Z,14.10
2017-11-04T18:26:11.616Z,14.10
2017-11-04T18:28:39.888Z,14.00
2017-11-04T18:31:08.203Z,13.90
2017-11-04T18:33:36.463Z,13.80
2017-11-04T18:36:05.255Z,13.80
2017-11-04T18:38:33.590Z,13.80
2017-11-04T18:41:01.909Z,13.90
2017-11-04T18:43:30.176Z,13.80
2017-11-04T18:45:58.469Z,13.70
2017-11-04T18:48:32.403Z,13.70
2017-11-04T18:51:00.716Z,13.70
2017-11-04T18:53:29.056Z,13.70
2017-11-04T18:55:57.317Z,13.70
2017-11-04T18:58:25.616Z,13.70
2017-11-04T19:00:53.886Z,13.60
2017-11-04T19:03:22.168Z,13.70
2017-11-04T19:05:50.479Z,13.70
2017-11-04T19:08:18.754Z,13.60
2017-11-04T19:10:47.172Z,13.60
2017-11-04T19:13:14.718Z,13.60
2017-11-04T19:15:43.022Z,13.70
2017-11-04T19:18:11.308Z,13.70
2017-11-04T19:20:39.607Z,13.70
2017-11-04T19:23:07.859Z,13.70
2017-11-04T19:25:42.462Z,13.70
2017-11-04T19:28:10.773Z,13.80
2017-11-04T19:30:39.102Z,13.70
2017-11-04T19:33:06.603Z,13.70
2017-11-04T19:35:35.987Z,13.80
2017-11-04T19:38:04.844Z,13.80
2017-11-04T19:40:33.152Z,13.70
2017-11-04T19:43:01.477Z,13.80
2017-11-04T19:45:29.750Z,13.70
2017-11-04T19:47:58.067Z,13.80
2017-11-04T19:50:26.384Z,13.90
2017-11-04T19:52:54.703Z,14.00
2017-11-04T19:55:23.010Z,13.90
2017-11-04T19:57:51.308Z,13.90
2017-11-04T20:00:19.617Z,13.90
2017-11-04T20:02:48.155Z,13.90
2017-11-04T20:05:17.695Z,13.90
2017-11-04T20:07:49.154Z,13.80
2017-11-04T20:10:19.776Z,13.80
2017-11-04T20:12:48.038Z,13.80
2017-11-04T20:15:17.190Z,13.70
2017-11-04T20:17:46.031Z,13.80
2017-11-04T20:20:15.123Z,13.70
2017-11-04T20:22:43.458Z,13.70
2017-11-04T20:25:11.752Z,13.70
2017-11-04T20:27:40.435Z,13.70
2017-11-04T20:30:08.795Z,13.80
2017-11-04T20:32:38.436Z,13.80
2017-11-04T20:35:14.067Z,13.90
2017-11-04T20:37:44.396Z,13.80
2017-11-04T20:40:12.715Z,13.80
2017-11-04T20:42:41.196Z,13.80
2017-11-04T20:45:09.459Z,13.90
2017-11-04T20:47:37.819Z,14.00
2017-11-04T20:50:06.886Z,13.90
2017-11-04T20:52:35.730Z,14.00
2017-11-04T20:55:05.000Z,13.80
2017-11-04T20:57:33.260Z,13.90
2017-11-04T21:00:01.938Z,14.00
2017-11-04T21:02:30.208Z,13.90
2017-11-04T21:04:58.557Z,13.80
2017-11-04T21:07:26.886Z,13.80
2017-11-04T21:09:55.244Z,13.90
2017-11-04T21:12:23.712Z,13.80
2017-11-04T21:14:54.140Z,13.70
2017-11-04T21:17:22.434Z,13.80
2017-11-04T21:19:50.697Z,13.70
2017-11-04T21:22:19.140Z,13.80
2017-11-04T21:24:47.454Z,13.80
2017-11-04T21:27:17.483Z,13.70
2017-11-04T21:29:46.861Z,13.70
2017-11-04T21:32:15.776Z,13.70
2017-11-04T21:34:44.143Z,13.70
2017-11-04T21:37:12.966Z,13.70
2017-11-04T21:39:41.270Z,13.70
2017-11-04T21:42:09.634Z,13.60
2017-11-04T21:44:37.955Z,13.70
2017-11-04T21:47:09.647Z,13.70
2017-11-04T21:49:37.922Z,13.70
2017-11-04T21:52:07.822Z,13.70
2017-11-04T21:54:37.295Z,13.60
2017-11-04T21:57:06.280Z,13.70
2017-11-04T21:59:35.706Z,13.70
2017-11-04T22:02:04.044Z,13.80
2017-11-04T22:04:32.344Z,13.70
2017-11-04T22:06:59.898Z,13.70
2017-11-04T22:09:28.208Z,13.70
2017-11-04T22:11:56.464Z,13.70
2017-11-04T22:14:42.438Z,13.60
2017-11-04T22:17:10.804Z,13.70
2017-11-04T22:19:39.166Z,13.70
2017-11-04T22:22:07.491Z,13.70
2017-11-04T22:24:36.665Z,13.60
2017-11-04T22:27:06.197Z,13.70
2017-11-04T22:29:35.873Z,13.50
2017-11-04T22:32:04.834Z,13.60
2017-11-04T22:34:33.101Z,13.70
2017-11-04T22:37:01.363Z,13.50
2017-11-04T22:39:29.716Z,13.60
2017-11-04T22:41:58.022Z,13.50
2017-11-04T22:44:26.299Z,13.50
2017-11-04T22:46:53.865Z,13.40
2017-11-04T22:49:22.161Z,13.40
2017-11-04T22:51:50.478Z,13.30
2017-11-04T22:54:18.842Z,13.20
2017-11-04T22:56:47.151Z,13.20
2017-11-04T22:59:16.466Z,13.10
2017-11-04T23:01:44.770Z,13.20
2017-11-04T23:04:13.040Z,13.20
2017-11-04T23:06:41.333Z,13.20
2017-11-04T23:09:09.594Z,13.10
2017-11-04T23:11:37.886Z,13.10
2017-11-04T23:14:07.487Z,13.20
2017-11-04T23:16:35.898Z,13.10
2017-11-04T23:19:04.874Z,13.10
2017-11-04T23:21:33.143Z,13.10
2017-11-04T23:24:01.443Z,13.00
2017-11-04T23:26:29.726Z,13.10
2017-11-04T23:28:58.025Z,13.00
2017-11-04T23:31:26.288Z,13.10
2017-11-04T23:33:54.554Z,13.10
2017-11-04T23:36:22.870Z,13.10
2017-11-04T23:38:51.154Z,13.10
2017-11-04T23:41:19.457Z,13.00
2017-11-04T23:43:47.718Z,13.00
2017-11-04T23:46:16.952Z,13.10
2017-11-04T23:48:45.661Z,13.10
2017-11-04T23:51:13.915Z,13.00
2017-11-04T23:53:42.208Z,13.10
2017-11-04T23:56:10.481Z,13.10
2017-11-04T23:58:38.788Z,13.10
